01:09 Rennrad Moetz - Pettnau - Zirl - Kematen - Voels - Radweg - Innsbruck ARZ
Ort Moetz Datum 13.06.2017 06:22:03
Kategorie Rennrad
Distanz 39,08 Kilometer Steigung 79,0 Meter Gefälle -132,0 Meter
Gesamt Zeit 01:09:02 Aktiv 01:08:37 Pause 00:00:25
Durchs. Tempo 34,2 km/h Tempo max. 47,7 km/h Tempo min. 21,1 km/h
Kalorien 0 Durchs. HF 129 BPM HF max. 151 BPM
Wetter 18 °C Clear Min/Max: 17,2 °C/18,9 °C; Druck: 1018,3 mbar; Rel. Feuchte: 73,7%; Taupunkt: 13,2 °C; Windgeschwindigkeit: 2,3 km/h; Niederschlag: 0,0mm
Ausrüstung Bontrager - RXL Road
Scott - Addict 20
Notiz Moetz - Pettnau - Zirl - Kematen - Voels - Radweg - Innsbruck ARZ ... trocken, nicht kalt, ab Rietz leichter Gegenwind - locker bis flott ... garmin connect
Splits
Distanz (km) Gesamt Zeit Split Zeit Split Tempo Split Tempo Höhenprofil (m)
1,00 00:02:04 00:02:04 00:02:05 28,9 -10,03
2,00 00:03:53 00:01:48 00:01:49 33,2 0,33
3,00 00:05:36 00:01:43 00:01:44 34,8 -0,63
4,00 00:07:21 00:01:44 00:01:45 34,3 -3,90
5,00 00:09:04 00:01:42 00:01:43 35,0 0,82
6,00 00:10:47 00:01:42 00:01:43 35,0 -0,32
7,00 00:12:29 00:01:41 00:01:42 35,3 -1,09
8,00 00:14:08 00:01:39 00:01:40 36,1 -7,69
9,00 00:15:50 00:01:41 00:01:42 35,3 -2,72
10,00 00:17:32 00:01:41 00:01:42 35,4 0,69
11,00 00:19:10 00:01:37 00:01:38 36,9 0,26
12,00 00:20:47 00:01:37 00:01:37 36,9 -6,25
13,00 00:22:30 00:01:42 00:01:43 35,1 -0,10
14,00 00:24:14 00:01:44 00:01:45 34,3 -0,13
15,00 00:26:02 00:01:47 00:01:47 33,5 -4,81
16,00 00:27:46 00:01:43 00:01:44 34,7 3,84
17,00 00:29:29 00:01:42 00:01:43 35,0 -7,97
18,00 00:31:13 00:01:44 00:01:44 34,5 0,00
19,00 00:32:57 00:01:43 00:01:44 34,6 -0,53
20,00 00:34:44 00:01:46 00:01:47 33,7 -0,97
21,00 00:36:32 00:01:48 00:01:48 33,2 -3,54
22,00 00:38:18 00:01:46 00:01:46 33,9 -3,91
23,00 00:40:21 00:02:02 00:02:03 29,4 10,44
24,00 00:42:05 00:01:44 00:01:44 34,5 -0,65
25,00 00:44:25 00:02:19 00:02:20 25,8 17,52
26,00 00:46:00 00:01:35 00:01:36 37,7 -9,92
27,00 00:47:25 00:01:24 00:01:25 42,4 -29,86
28,00 00:48:57 00:01:31 00:01:32 39,3 4,53
29,00 00:50:42 00:01:45 00:01:45 34,2 0,42
30,00 00:52:23 00:01:40 00:01:41 35,7 -2,82
31,00 00:53:58 00:01:35 00:01:35 37,7 -3,30
32,00 00:55:36 00:01:37 00:01:38 36,9 -1,10
33,00 00:57:30 00:01:53 00:01:54 31,6 2,28
34,00 00:59:33 00:02:03 00:02:03 29,3 -8,19
35,00 01:01:13 00:01:40 00:01:40 35,9 -3,66
36,00 01:02:55 00:01:41 00:01:42 35,5 -1,96
37,00 01:04:35 00:01:40 00:01:40 35,9 -2,06
38,00 01:06:27 00:01:51 00:01:52 32,2 0,94
39,00 01:08:21 00:01:54 00:01:55 31,4 6,35
39,11 01:08:37 00:00:15 00:02:14 26,9 0,00